createdAt,value
2023-08-16T00:00:43.763Z,7.50
2023-08-16T00:03:56.601Z,7.35
2023-08-16T00:07:09.365Z,7.32
2023-08-16T00:10:22.073Z,7.43
2023-08-16T00:13:34.601Z,7.55
2023-08-16T00:16:47.819Z,7.70
2023-08-16T00:20:00.236Z,7.78
2023-08-16T00:23:12.978Z,8.10
2023-08-16T00:26:25.392Z,7.75
2023-08-16T00:29:38.075Z,7.70
2023-08-16T00:32:50.543Z,8.60
2023-08-16T00:36:03.768Z,7.93
2023-08-16T00:39:16.217Z,8.10
2023-08-16T00:42:28.844Z,7.70
2023-08-16T00:45:41.206Z,7.93
2023-08-16T00:48:54.213Z,7.53
2023-08-16T00:52:06.706Z,7.43
2023-08-16T00:55:19.412Z,7.97
2023-08-16T00:58:31.859Z,8.00
2023-08-16T01:01:46.519Z,7.62
2023-08-16T01:04:59.033Z,7.82
2023-08-16T01:08:11.739Z,7.65
2023-08-16T01:11:34.939Z,7.65
2023-08-16T01:14:57.774Z,7.87
2023-08-16T01:18:10.848Z,7.32
2023-08-16T01:21:23.537Z,7.20
2023-08-16T01:27:58.128Z,7.90
2023-08-16T01:31:12.059Z,8.02
2023-08-16T01:34:26.437Z,7.90
2023-08-16T01:37:38.839Z,8.55
2023-08-16T01:40:57.693Z,8.90
2023-08-16T01:44:10.215Z,8.93
2023-08-16T01:47:23.232Z,9.48
2023-08-16T01:50:35.797Z,9.43
2023-08-16T01:53:53.403Z,9.50
2023-08-16T01:57:06.157Z,9.38
2023-08-16T02:00:18.896Z,9.93
2023-08-16T02:03:32.802Z,9.98
2023-08-16T02:06:45.556Z,9.68
2023-08-16T02:09:57.952Z,9.82
2023-08-16T02:13:10.696Z,10.38
2023-08-16T02:16:24.666Z,9.05
2023-08-16T02:19:37.485Z,8.68
2023-08-16T02:22:49.888Z,8.82
2023-08-16T02:26:02.554Z,8.30
2023-08-16T02:29:15.028Z,7.85
2023-08-16T02:32:27.692Z,8.40
2023-08-16T02:35:40.132Z,8.10
2023-08-16T02:38:52.843Z,7.82
2023-08-16T02:42:05.346Z,8.15
2023-08-16T02:45:18.449Z,8.00
2023-08-16T02:48:31.532Z,8.52
2023-08-16T02:51:44.237Z,7.85
2023-08-16T02:54:56.643Z,8.00
2023-08-16T02:58:09.366Z,8.63
2023-08-16T03:01:22.434Z,8.10
2023-08-16T03:04:40.181Z,8.25
2023-08-16T03:07:53.244Z,8.55
2023-08-16T03:11:06.329Z,9.07
2023-08-16T03:14:18.814Z,8.75
2023-08-16T03:17:31.538Z,8.52
2023-08-16T03:20:44.393Z,8.40
2023-08-16T03:23:57.268Z,7.97
2023-08-16T03:27:10.165Z,8.63
2023-08-16T03:30:22.939Z,8.25
2023-08-16T03:33:36.918Z,8.40
2023-08-16T03:36:49.666Z,8.38
2023-08-16T03:40:02.108Z,7.80
2023-08-16T03:43:14.819Z,8.65
2023-08-16T03:46:27.239Z,8.55
2023-08-16T03:49:39.928Z,7.95
2023-08-16T03:52:52.717Z,8.13
2023-08-16T03:56:05.480Z,8.52
2023-08-16T03:59:19.016Z,8.57
2023-08-16T04:02:31.728Z,8.80
2023-08-16T04:05:44.453Z,8.68
2023-08-16T04:08:56.840Z,8.55
2023-08-16T04:12:09.555Z,9.13
2023-08-16T04:15:21.990Z,8.52
2023-08-16T04:18:35.963Z,8.30
2023-08-16T04:21:48.372Z,8.68
2023-08-16T04:25:01.058Z,8.35
2023-08-16T04:28:14.253Z,8.27
2023-08-16T04:31:27.353Z,8.95
2023-08-16T04:34:40.048Z,8.23
2023-08-16T04:37:52.836Z,9.00
2023-08-16T04:41:05.506Z,9.10
2023-08-16T04:44:18.246Z,8.85
2023-08-16T04:47:31.401Z,9.07
2023-08-16T04:50:45.575Z,9.25
2023-08-16T04:53:58.214Z,8.65
2023-08-16T04:57:10.937Z,9.43
2023-08-16T05:00:24.393Z,9.32
2023-08-16T05:03:37.384Z,8.93
2023-08-16T05:06:49.830Z,8.88
2023-08-16T05:10:03.054Z,9.05
2023-08-16T05:13:16.385Z,8.93
2023-08-16T05:16:29.350Z,8.82
2023-08-16T05:19:42.386Z,8.48
2023-08-16T05:22:55.057Z,8.48
2023-08-16T05:26:07.500Z,8.50
2023-08-16T05:29:20.323Z,8.43
2023-08-16T05:32:33.152Z,8.55
2023-08-16T05:35:45.892Z,8.20
2023-08-16T05:38:58.287Z,8.75
2023-08-16T05:42:11.022Z,7.55
2023-08-16T05:45:24.180Z,7.05
2023-08-16T05:48:36.980Z,7.45
2023-08-16T05:51:51.449Z,7.37
2023-08-16T05:55:04.351Z,7.25
2023-08-16T05:58:16.772Z,7.03
2023-08-16T06:01:29.510Z,7.40
2023-08-16T06:04:42.195Z,7.18
2023-08-16T06:07:55.405Z,6.87
2023-08-16T06:11:09.842Z,7.07
2023-08-16T06:14:23.561Z,7.40
2023-08-16T06:17:38.593Z,7.05
2023-08-16T06:20:51.083Z,6.72
2023-08-16T06:24:05.329Z,6.62
2023-08-16T06:27:17.766Z,6.97
2023-08-16T06:30:30.629Z,7.00
2023-08-16T06:33:43.092Z,6.70
2023-08-16T06:36:58.975Z,7.07
2023-08-16T06:40:12.041Z,6.97
2023-08-16T06:43:24.961Z,8.10
2023-08-16T06:46:37.409Z,7.57
2023-08-16T06:49:50.139Z,7.40
2023-08-16T06:53:02.606Z,7.82
2023-08-16T06:56:15.338Z,7.60
2023-08-16T06:59:28.338Z,7.75
2023-08-16T07:02:42.296Z,7.60
2023-08-16T07:05:55.394Z,8.18
2023-08-16T07:09:08.105Z,8.30
2023-08-16T07:12:20.631Z,9.25
2023-08-16T07:15:33.312Z,8.75
2023-08-16T07:18:46.710Z,8.80
2023-08-16T07:21:59.445Z,9.07
2023-08-16T07:25:12.558Z,9.02
2023-08-16T07:28:26.192Z,9.07
2023-08-16T07:31:38.598Z,8.70
2023-08-16T07:34:51.550Z,8.93
2023-08-16T07:38:04.802Z,7.85
2023-08-16T07:41:17.514Z,8.43
2023-08-16T07:44:29.936Z,8.57
2023-08-16T07:47:43.472Z,8.52
2023-08-16T07:50:55.988Z,8.70
2023-08-16T07:54:08.630Z,8.45
2023-08-16T07:57:20.998Z,8.70
2023-08-16T08:00:33.913Z,7.90
2023-08-16T08:03:47.886Z,8.85
2023-08-16T08:07:00.395Z,8.95
2023-08-16T08:10:13.206Z,8.70
2023-08-16T08:13:26.456Z,8.90
2023-08-16T08:16:39.108Z,8.52
2023-08-16T08:19:51.606Z,8.30
2023-08-16T08:23:05.020Z,8.38
2023-08-16T08:26:17.779Z,8.30
2023-08-16T08:29:32.665Z,8.65
2023-08-16T08:32:45.113Z,8.30
2023-08-16T08:35:58.392Z,8.68
2023-08-16T08:39:10.894Z,8.43
2023-08-16T08:42:23.802Z,8.30
2023-08-16T08:45:36.678Z,8.90
2023-08-16T08:48:49.497Z,8.65
2023-08-16T08:52:05.997Z,8.55
2023-08-16T08:55:19.612Z,8.50
2023-08-16T08:58:32.127Z,8.60
2023-08-16T09:01:45.466Z,8.90
2023-08-16T09:04:59.798Z,8.57
2023-08-16T09:08:14.825Z,9.25
2023-08-16T09:11:27.245Z,8.23
2023-08-16T09:14:39.929Z,8.85
2023-08-16T09:17:52.402Z,9.80
2023-08-16T09:21:05.155Z,8.88
2023-08-16T09:24:17.534Z,8.85
2023-08-16T09:27:32.576Z,8.43
2023-08-16T09:30:44.956Z,8.30
2023-08-16T09:34:00.204Z,8.13
2023-08-16T09:37:13.868Z,8.02
2023-08-16T09:40:26.806Z,8.13
2023-08-16T09:43:39.224Z,7.75
2023-08-16T09:50:07.775Z,7.82
2023-08-16T09:53:36.425Z,7.82
2023-08-16T10:00:08.843Z,7.50
2023-08-16T10:03:26.313Z,8.07
2023-08-16T10:06:39.911Z,7.72
2023-08-16T10:09:52.397Z,7.65
2023-08-16T10:13:05.084Z,8.00
2023-08-16T10:16:17.565Z,7.18
2023-08-16T10:19:34.427Z,7.22
2023-08-16T10:22:48.158Z,7.43
2023-08-16T10:26:00.927Z,7.82
2023-08-16T10:32:30.203Z,7.55
2023-08-16T10:35:42.700Z,8.30
2023-08-16T10:38:59.269Z,8.10
2023-08-16T10:42:14.477Z,8.18
2023-08-16T10:48:46.579Z,7.05
2023-08-16T10:51:59.283Z,7.45
2023-08-16T10:55:15.514Z,7.90
2023-08-16T10:58:29.796Z,7.93
2023-08-16T11:01:49.503Z,7.30
2023-08-16T11:05:02.567Z,7.57
2023-08-16T11:08:16.527Z,7.43
2023-08-16T11:11:29.242Z,7.30
2023-08-16T11:14:41.598Z,7.18
2023-08-16T11:18:07.340Z,7.03
2023-08-16T11:21:21.869Z,6.68
2023-08-16T11:24:35.026Z,7.20
2023-08-16T11:27:47.404Z,7.28
2023-08-16T11:31:04.341Z,7.25
2023-08-16T11:34:19.438Z,6.90
2023-08-16T11:37:32.149Z,7.03
2023-08-16T11:40:48.738Z,7.22
2023-08-16T11:44:01.657Z,7.28
2023-08-16T11:47:14.099Z,6.57
2023-08-16T11:50:27.980Z,6.78
2023-08-16T11:53:40.433Z,7.22
2023-08-16T11:56:53.135Z,7.15
2023-08-16T12:00:06.765Z,6.60
2023-08-16T12:03:19.151Z,6.70
2023-08-16T12:06:32.593Z,6.12
2023-08-16T12:09:45.020Z,6.47
2023-08-16T12:12:57.941Z,6.53
2023-08-16T12:16:10.453Z,6.32
2023-08-16T12:19:23.455Z,6.68
2023-08-16T12:22:35.926Z,6.28
2023-08-16T12:25:48.731Z,6.55
2023-08-16T12:29:01.084Z,5.78
2023-08-16T12:32:13.721Z,6.68
2023-08-16T12:35:26.210Z,5.78
2023-08-16T12:38:40.253Z,6.60
2023-08-16T12:41:53.470Z,6.32
2023-08-16T12:45:06.800Z,6.50
2023-08-16T12:48:19.557Z,6.50
2023-08-16T12:51:32.410Z,6.03
2023-08-16T12:54:44.786Z,6.22
2023-08-16T12:58:03.280Z,6.22
2023-08-16T13:01:19.401Z,5.85
2023-08-16T13:04:36.698Z,6.40
2023-08-16T13:07:50.752Z,6.30
2023-08-16T13:14:30.074Z,6.75
2023-08-16T13:17:50.107Z,6.07
2023-08-16T13:27:44.905Z,5.87
2023-08-16T13:31:06.114Z,5.78
2023-08-16T13:37:44.430Z,5.65
2023-08-16T13:47:54.390Z,5.97
2023-08-16T13:51:07.087Z,6.00
2023-08-16T13:54:19.465Z,5.90
2023-08-16T13:57:32.139Z,6.05
2023-08-16T14:00:44.793Z,6.03
2023-08-16T14:03:58.544Z,6.15
2023-08-16T14:07:10.943Z,6.28
2023-08-16T14:10:25.628Z,6.45
2023-08-16T14:13:38.024Z,6.03
2023-08-16T14:16:50.768Z,5.95
2023-08-16T14:20:03.213Z,5.95
2023-08-16T14:23:16.189Z,5.95
2023-08-16T14:26:28.607Z,6.40
2023-08-16T14:29:41.264Z,5.85
2023-08-16T14:32:53.625Z,6.30
2023-08-16T14:36:06.372Z,5.95
2023-08-16T14:39:20.081Z,6.25
2023-08-16T14:42:32.857Z,5.90
2023-08-16T14:45:45.518Z,6.18
2023-08-16T14:48:58.248Z,6.28
2023-08-16T14:52:10.649Z,5.90
2023-08-16T14:55:26.577Z,6.18
2023-08-16T14:58:42.220Z,5.95
2023-08-16T15:05:07.231Z,5.65
2023-08-16T15:08:20.307Z,5.70
2023-08-16T15:11:33.086Z,5.95
2023-08-16T15:14:45.767Z,6.70
2023-08-16T15:17:58.310Z,6.10
2023-08-16T15:21:10.996Z,6.50
2023-08-16T15:24:23.402Z,6.40
2023-08-16T15:27:36.035Z,6.25
2023-08-16T15:30:54.450Z,6.50
2023-08-16T15:34:07.168Z,6.47
2023-08-16T15:37:20.401Z,6.55
2023-08-16T15:40:38.112Z,6.40
2023-08-16T15:43:50.515Z,6.40
2023-08-16T15:47:03.179Z,6.07
2023-08-16T15:50:15.598Z,6.18
2023-08-16T15:53:28.328Z,6.30
2023-08-16T15:56:40.711Z,6.25
2023-08-16T15:59:53.372Z,6.37
2023-08-16T16:03:06.015Z,6.50
2023-08-16T16:06:18.762Z,6.03
2023-08-16T16:09:31.139Z,6.15
2023-08-16T16:12:43.840Z,6.57
2023-08-16T16:15:56.372Z,6.12
2023-08-16T16:19:09.085Z,6.15
2023-08-16T16:22:21.488Z,6.20
2023-08-16T16:25:34.319Z,6.45
2023-08-16T16:28:46.788Z,6.80
2023-08-16T16:31:59.416Z,5.85
2023-08-16T16:35:11.897Z,6.12
2023-08-16T16:38:24.704Z,6.07
2023-08-16T16:41:37.096Z,6.20
2023-08-16T16:44:51.685Z,6.30
2023-08-16T16:48:05.789Z,6.40
2023-08-16T16:51:18.594Z,6.62
2023-08-16T16:54:30.960Z,6.28
2023-08-16T16:57:43.600Z,6.80
2023-08-16T17:00:57.085Z,6.50
2023-08-16T17:04:09.837Z,7.05
2023-08-16T17:07:22.211Z,6.87
2023-08-16T17:10:34.858Z,6.80
2023-08-16T17:13:47.211Z,6.37
2023-08-16T17:17:00.633Z,6.70
2023-08-16T17:20:13.510Z,6.15
2023-08-16T17:23:26.274Z,7.05
2023-08-16T17:26:38.643Z,6.45
2023-08-16T17:29:51.381Z,6.65
2023-08-16T17:33:04.065Z,6.30
2023-08-16T17:36:20.844Z,6.53
2023-08-16T17:39:33.201Z,6.72
2023-08-16T17:42:46.294Z,7.20
2023-08-16T17:45:58.711Z,5.37
2023-08-16T17:49:11.476Z,5.05
2023-08-16T17:52:23.868Z,4.93
2023-08-16T17:55:36.533Z,4.75
2023-08-16T17:58:48.918Z,4.15
2023-08-16T18:02:01.924Z,4.80
2023-08-16T18:05:15.047Z,4.50
2023-08-16T18:08:27.589Z,4.35
2023-08-16T18:11:40.327Z,4.57
2023-08-16T18:14:52.719Z,4.37
2023-08-16T18:18:06.754Z,4.68
2023-08-16T18:21:19.201Z,4.40
2023-08-16T18:24:33.858Z,4.00
2023-08-16T18:27:46.497Z,4.43
2023-08-16T18:30:59.428Z,4.03
2023-08-16T18:34:12.156Z,4.32
2023-08-16T18:37:25.074Z,4.37
2023-08-16T18:40:37.594Z,4.12
2023-08-16T18:43:50.513Z,4.47
2023-08-16T18:47:02.940Z,4.20
2023-08-16T18:50:18.036Z,4.72
2023-08-16T18:53:30.413Z,4.55
2023-08-16T18:56:43.098Z,4.68
2023-08-16T18:59:55.501Z,4.65
2023-08-16T19:03:08.160Z,4.25
2023-08-16T19:06:20.535Z,4.80
2023-08-16T19:09:33.230Z,4.60
2023-08-16T19:12:45.607Z,4.62
2023-08-16T19:15:58.319Z,4.87
2023-08-16T19:19:10.790Z,5.32
2023-08-16T19:22:24.542Z,5.00
2023-08-16T19:25:36.969Z,5.00
2023-08-16T19:28:49.611Z,5.37
2023-08-16T19:32:02.044Z,5.90
2023-08-16T19:35:16.353Z,6.30
2023-08-16T19:38:28.922Z,5.97
2023-08-16T19:41:41.600Z,6.10
2023-08-16T19:44:54.108Z,5.90
2023-08-16T19:48:07.030Z,6.57
2023-08-16T19:51:19.443Z,6.35
2023-08-16T19:54:32.119Z,7.22
2023-08-16T19:57:44.494Z,6.55
2023-08-16T20:00:57.228Z,6.78
2023-08-16T20:04:09.912Z,6.93
2023-08-16T20:07:22.697Z,7.20
2023-08-16T20:10:35.761Z,7.18
2023-08-16T20:13:48.098Z,6.57
2023-08-16T20:17:00.886Z,6.70
2023-08-16T20:20:13.336Z,7.05
2023-08-16T20:23:26.050Z,7.25
2023-08-16T20:26:38.460Z,6.62
2023-08-16T20:29:51.120Z,7.12
2023-08-16T20:33:03.699Z,6.85
2023-08-16T20:36:16.419Z,7.18
2023-08-16T20:39:28.826Z,6.57
2023-08-16T20:42:41.713Z,7.20
2023-08-16T20:45:54.138Z,6.70
2023-08-16T20:49:12.503Z,7.00
2023-08-16T20:52:24.888Z,7.00
2023-08-16T20:55:37.578Z,6.93
2023-08-16T20:58:49.937Z,6.87
2023-08-16T21:02:02.595Z,6.80
2023-08-16T21:05:15.060Z,6.82
2023-08-16T21:08:27.780Z,7.10
2023-08-16T21:11:40.216Z,6.53
2023-08-16T21:14:53.084Z,6.80
2023-08-16T21:18:05.742Z,6.87
2023-08-16T21:21:18.422Z,6.80
2023-08-16T21:24:30.987Z,6.70
2023-08-16T21:27:43.756Z,6.47
2023-08-16T21:30:56.724Z,6.70
2023-08-16T21:34:10.865Z,7.22
2023-08-16T21:37:23.555Z,6.22
2023-08-16T21:40:36.976Z,6.18
2023-08-16T21:43:49.403Z,6.20
2023-08-16T21:47:02.077Z,6.40
2023-08-16T21:50:14.479Z,6.55
2023-08-16T21:53:27.137Z,6.28
2023-08-16T21:56:39.627Z,6.50
2023-08-16T21:59:52.359Z,6.45
2023-08-16T22:03:05.092Z,6.40
2023-08-16T22:06:17.903Z,6.55
2023-08-16T22:09:30.352Z,6.55
2023-08-16T22:12:43.020Z,6.65
2023-08-16T22:15:55.524Z,6.45
2023-08-16T22:19:08.245Z,7.28
2023-08-16T22:22:20.602Z,7.20
2023-08-16T22:25:33.257Z,6.93
2023-08-16T22:28:52.916Z,6.50
2023-08-16T22:32:06.027Z,6.55
2023-08-16T22:35:18.396Z,6.80
2023-08-16T22:38:31.047Z,7.05
2023-08-16T22:41:43.449Z,6.80
2023-08-16T22:44:56.106Z,6.90
2023-08-16T22:48:08.633Z,6.87
2023-08-16T22:51:21.294Z,7.15
2023-08-16T22:54:33.715Z,7.00
2023-08-16T22:57:46.606Z,6.80
2023-08-16T23:00:59.074Z,6.95
2023-08-16T23:04:11.808Z,7.03
2023-08-16T23:07:24.608Z,7.80
2023-08-16T23:10:41.507Z,7.53
2023-08-16T23:13:53.937Z,7.62
2023-08-16T23:17:06.650Z,7.62
2023-08-16T23:20:19.189Z,7.93
2023-08-16T23:23:31.913Z,7.70
2023-08-16T23:26:44.300Z,8.10
2023-08-16T23:29:56.964Z,8.05
2023-08-16T23:33:09.514Z,8.05
2023-08-16T23:36:22.275Z,7.72
2023-08-16T23:39:34.649Z,8.27
2023-08-16T23:42:47.473Z,8.05
2023-08-16T23:45:59.922Z,8.23
2023-08-16T23:49:12.587Z,7.85
2023-08-16T23:52:25.040Z,7.90
2023-08-16T23:55:39.441Z,8.20
2023-08-16T23:58:51.830Z,8.68
